sensor_id;sensor_type;location;lat;lon;timestamp;pressure;altitude;pressure_sealevel;temperature;humidity
47670;BME280;33408;52.062;11.722;2023-04-07T00:00:14;101456.03;;;3.72;88.13
47670;BME280;33408;52.062;11.722;2023-04-07T00:02:41;101454.19;;;3.64;89.20
47670;BME280;33408;52.062;11.722;2023-04-07T00:05:07;101459.28;;;3.63;89.21
47670;BME280;33408;52.062;11.722;2023-04-07T00:07:34;101460.47;;;3.41;90.02
47670;BME280;33408;52.062;11.722;2023-04-07T00:10:03;101464.09;;;3.49;90.29
47670;BME280;33408;52.062;11.722;2023-04-07T00:12:30;101461.59;;;3.52;90.94
47670;BME280;33408;52.062;11.722;2023-04-07T00:14:56;101455.59;;;3.52;90.84
47670;BME280;33408;52.062;11.722;2023-04-07T00:17:23;101452.25;;;3.54;90.20
47670;BME280;33408;52.062;11.722;2023-04-07T00:19:49;101453.88;;;3.51;90.34
47670;BME280;33408;52.062;11.722;2023-04-07T00:22:16;101450.19;;;3.39;89.92
47670;BME280;33408;52.062;11.722;2023-04-07T00:24:43;101449.41;;;3.42;89.63
47670;BME280;33408;52.062;11.722;2023-04-07T00:27:11;101443.31;;;3.37;89.37
47670;BME280;33408;52.062;11.722;2023-04-07T00:29:37;101447.50;;;3.33;89.60
47670;BME280;33408;52.062;11.722;2023-04-07T00:32:04;101448.41;;;3.35;88.58
47670;BME280;33408;52.062;11.722;2023-04-07T00:34:31;101446.91;;;3.45;88.65
47670;BME280;33408;52.062;11.722;2023-04-07T00:36:57;101439.22;;;3.45;88.27
47670;BME280;33408;52.062;11.722;2023-04-07T00:39:24;101439.03;;;3.36;87.81
47670;BME280;33408;52.062;11.722;2023-04-07T00:41:52;101437.34;;;3.38;88.21
47670;BME280;33408;52.062;11.722;2023-04-07T00:44:20;101428.63;;;3.29;88.32
47670;BME280;33408;52.062;11.722;2023-04-07T00:46:46;101427.44;;;3.15;89.45
47670;BME280;33408;52.062;11.722;2023-04-07T00:49:14;101431.34;;;2.99;91.16
47670;BME280;33408;52.062;11.722;2023-04-07T00:51:42;101438.53;;;2.79;92.83
47670;BME280;33408;52.062;11.722;2023-04-07T00:54:09;101431.88;;;2.52;94.17
47670;BME280;33408;52.062;11.722;2023-04-07T00:56:36;101433.31;;;2.41;95.31
47670;BME280;33408;52.062;11.722;2023-04-07T00:59:03;101424.13;;;2.49;96.69
47670;BME280;33408;52.062;11.722;2023-04-07T01:01:35;101425.31;;;2.62;97.19
47670;BME280;33408;52.062;11.722;2023-04-07T01:04:08;101433.00;;;2.29;98.21
47670;BME280;33408;52.062;11.722;2023-04-07T01:06:43;101433.56;;;2.18;99.70
47670;BME280;33408;52.062;11.722;2023-04-07T01:09:16;101432.78;;;2.21;100.00
47670;BME280;33408;52.062;11.722;2023-04-07T01:11:47;101426.56;;;2.11;100.00
47670;BME280;33408;52.062;11.722;2023-04-07T01:14:18;101428.63;;;2.25;100.00
47670;BME280;33408;52.062;11.722;2023-04-07T01:16:49;101423.38;;;2.20;100.00
47670;BME280;33408;52.062;11.722;2023-04-07T01:19:31;101426.50;;;2.10;100.00
47670;BME280;33408;52.062;11.722;2023-04-07T01:21:59;101420.91;;;2.23;100.00
47670;BME280;33408;52.062;11.722;2023-04-07T01:24:38;101418.53;;;1.99;100.00
47670;BME280;33408;52.062;11.722;2023-04-07T01:27:17;101424.34;;;2.25;100.00
47670;BME280;33408;52.062;11.722;2023-04-07T01:29:48;101415.88;;;2.26;100.00
47670;BME280;33408;52.062;11.722;2023-04-07T01:32:17;101411.16;;;2.42;99.91
47670;BME280;33408;52.062;11.722;2023-04-07T01:34:46;101406.13;;;2.45;98.43
47670;BME280;33408;52.062;11.722;2023-04-07T01:37:14;101413.47;;;2.32;98.35
47670;BME280;33408;52.062;11.722;2023-04-07T01:39:41;101414.13;;;2.25;97.42
47670;BME280;33408;52.062;11.722;2023-04-07T01:42:08;101415.22;;;2.35;97.07
47670;BME280;33408;52.062;11.722;2023-04-07T01:44:36;101418.28;;;2.22;97.33
47670;BME280;33408;52.062;11.722;2023-04-07T01:47:05;101415.09;;;2.29;96.88
47670;BME280;33408;52.062;11.722;2023-04-07T01:49:32;101411.66;;;2.28;97.41
47670;BME280;33408;52.062;11.722;2023-04-07T01:52:01;101411.38;;;2.17;97.89
47670;BME280;33408;52.062;11.722;2023-04-07T01:54:28;101404.22;;;2.37;97.85
47670;BME280;33408;52.062;11.722;2023-04-07T01:56:55;101406.84;;;2.41;96.61
47670;BME280;33408;52.062;11.722;2023-04-07T01:59:22;101406.72;;;2.36;97.29
47670;BME280;33408;52.062;11.722;2023-04-07T02:01:48;101406.56;;;2.30;97.29
47670;BME280;33408;52.062;11.722;2023-04-07T02:04:21;101410.22;;;2.40;97.13
47670;BME280;33408;52.062;11.722;2023-04-07T02:06:55;101404.13;;;2.34;97.75
47670;BME280;33408;52.062;11.722;2023-04-07T02:09:26;101401.88;;;2.13;97.13
47670;BME280;33408;52.062;11.722;2023-04-07T02:11:56;101406.56;;;2.30;96.75
47670;BME280;33408;52.062;11.722;2023-04-07T02:14:24;101398.44;;;2.45;96.33
47670;BME280;33408;52.062;11.722;2023-04-07T02:16:51;101396.41;;;2.33;95.74
47670;BME280;33408;52.062;11.722;2023-04-07T02:19:20;101393.69;;;2.60;94.60
47670;BME280;33408;52.062;11.722;2023-04-07T02:21:47;101391.75;;;2.50;93.86
47670;BME280;33408;52.062;11.722;2023-04-07T02:24:18;101392.56;;;2.49;93.79
47670;BME280;33408;52.062;11.722;2023-04-07T02:26:46;101388.41;;;2.54;92.77
47670;BME280;33408;52.062;11.722;2023-04-07T02:29:13;101384.16;;;2.53;92.19
47670;BME280;33408;52.062;11.722;2023-04-07T02:31:39;101388.63;;;2.62;92.39
47670;BME280;33408;52.062;11.722;2023-04-07T02:34:06;101385.81;;;2.52;92.15
47670;BME280;33408;52.062;11.722;2023-04-07T02:36:34;101387.59;;;2.55;91.99
47670;BME280;33408;52.062;11.722;2023-04-07T02:39:00;101392.81;;;2.58;92.79
47670;BME280;33408;52.062;11.722;2023-04-07T02:41:27;101386.94;;;2.64;92.62
47670;BME280;33408;52.062;11.722;2023-04-07T02:43:54;101381.88;;;2.65;92.59
47670;BME280;33408;52.062;11.722;2023-04-07T02:46:20;101384.34;;;2.62;91.89
47670;BME280;33408;52.062;11.722;2023-04-07T02:48:47;101373.34;;;2.65;92.74
47670;BME280;33408;52.062;11.722;2023-04-07T02:51:13;101390.00;;;2.49;92.60
47670;BME280;33408;52.062;11.722;2023-04-07T02:53:41;101386.66;;;2.51;92.70
47670;BME280;33408;52.062;11.722;2023-04-07T02:56:08;101384.16;;;2.53;93.44
47670;BME280;33408;52.062;11.722;2023-04-07T02:58:35;101390.13;;;2.53;93.19
47670;BME280;33408;52.062;11.722;2023-04-07T03:01:01;101393.66;;;2.59;93.28
47670;BME280;33408;52.062;11.722;2023-04-07T03:03:28;101385.69;;;2.48;95.58
47670;BME280;33408;52.062;11.722;2023-04-07T03:05:54;101390.69;;;2.42;97.36
47670;BME280;33408;52.062;11.722;2023-04-07T03:08:21;101394.78;;;2.36;99.12
47670;BME280;33408;52.062;11.722;2023-04-07T03:10:49;101392.34;;;2.41;100.00
47670;BME280;33408;52.062;11.722;2023-04-07T03:13:17;101392.88;;;2.28;100.00
47670;BME280;33408;52.062;11.722;2023-04-07T03:15:44;101394.47;;;2.23;100.00
47670;BME280;33408;52.062;11.722;2023-04-07T03:18:11;101402.06;;;2.19;100.00
47670;BME280;33408;52.062;11.722;2023-04-07T03:20:38;101393.25;;;1.78;100.00
47670;BME280;33408;52.062;11.722;2023-04-07T03:23:06;101398.69;;;1.60;100.00
47670;BME280;33408;52.062;11.722;2023-04-07T03:25:32;101393.78;;;1.66;100.00
47670;BME280;33408;52.062;11.722;2023-04-07T03:28:00;101394.44;;;1.60;100.00
47670;BME280;33408;52.062;11.722;2023-04-07T03:30:27;101395.78;;;1.78;100.00
47670;BME280;33408;52.062;11.722;2023-04-07T03:32:53;101400.13;;;1.80;100.00
47670;BME280;33408;52.062;11.722;2023-04-07T03:35:20;101396.09;;;1.89;100.00
47670;BME280;33408;52.062;11.722;2023-04-07T03:37:47;101396.06;;;1.87;100.00
47670;BME280;33408;52.062;11.722;2023-04-07T03:40:13;101384.88;;;1.84;100.00
47670;BME280;33408;52.062;11.722;2023-04-07T03:42:40;101395.06;;;1.82;100.00
47670;BME280;33408;52.062;11.722;2023-04-07T03:45:08;101390.47;;;1.70;100.00
47670;BME280;33408;52.062;11.722;2023-04-07T03:47:35;101396.84;;;1.56;100.00
47670;BME280;33408;52.062;11.722;2023-04-07T03:50:02;101392.50;;;1.52;100.00
47670;BME280;33408;52.062;11.722;2023-04-07T03:52:29;101391.22;;;1.37;100.00
47670;BME280;33408;52.062;11.722;2023-04-07T03:54:55;101395.72;;;1.46;100.00
47670;BME280;33408;52.062;11.722;2023-04-07T03:57:22;101393.72;;;1.36;100.00
47670;BME280;33408;52.062;11.722;2023-04-07T03:59:49;101396.75;;;1.24;100.00
47670;BME280;33408;52.062;11.722;2023-04-07T04:02:17;101402.56;;;1.18;100.00
47670;BME280;33408;52.062;11.722;2023-04-07T04:04:44;101408.72;;;1.25;100.00
47670;BME280;33408;52.062;11.722;2023-04-07T04:07:10;101403.22;;;1.13;100.00
47670;BME280;33408;52.062;11.722;2023-04-07T04:09:37;101408.94;;;1.04;100.00
47670;BME280;33408;52.062;11.722;2023-04-07T04:12:04;101409.69;;;1.01;100.00
47670;BME280;33408;52.062;11.722;2023-04-07T04:14:31;101413.97;;;1.02;100.00
47670;BME280;33408;52.062;11.722;2023-04-07T04:16:57;101411.47;;;0.77;100.00
47670;BME280;33408;52.062;11.722;2023-04-07T04:19:25;101418.41;;;0.81;100.00
47670;BME280;33408;52.062;11.722;2023-04-07T04:21:52;101408.69;;;0.96;100.00
47670;BME280;33408;52.062;11.722;2023-04-07T04:24:18;101409.56;;;0.97;100.00
47670;BME280;33408;52.062;11.722;2023-04-07T04:26:45;101408.63;;;0.95;100.00
47670;BME280;33408;52.062;11.722;2023-04-07T04:29:11;101407.91;;;0.99;100.00
47670;BME280;33408;52.062;11.722;2023-04-07T04:31:38;101401.94;;;0.98;100.00
47670;BME280;33408;52.062;11.722;2023-04-07T04:34:05;101408.47;;;0.90;100.00
47670;BME280;33408;52.062;11.722;2023-04-07T04:36:33;101404.47;;;0.97;100.00
47670;BME280;33408;52.062;11.722;2023-04-07T04:38:59;101406.06;;;0.95;100.00
47670;BME280;33408;52.062;11.722;2023-04-07T04:41:26;101404.69;;;1.04;100.00
47670;BME280;33408;52.062;11.722;2023-04-07T04:43:53;101403.78;;;1.02;100.00
47670;BME280;33408;52.062;11.722;2023-04-07T04:46:19;101408.59;;;0.67;100.00
47670;BME280;33408;52.062;11.722;2023-04-07T04:48:46;101413.09;;;0.75;100.00
47670;BME280;33408;52.062;11.722;2023-04-07T04:51:12;101417.75;;;0.61;100.00
47670;BME280;33408;52.062;11.722;2023-04-07T04:53:40;101425.09;;;0.27;100.00
47670;BME280;33408;52.062;11.722;2023-04-07T04:56:07;101413.34;;;0.31;100.00
47670;BME280;33408;52.062;11.722;2023-04-07T04:58:34;101415.84;;;0.29;100.00
47670;BME280;33408;52.062;11.722;2023-04-07T05:01:01;101413.72;;;0.67;100.00
47670;BME280;33408;52.062;11.722;2023-04-07T05:03:27;101415.41;;;0.67;100.00
47670;BME280;33408;52.062;11.722;2023-04-07T05:05:54;101419.69;;;0.68;100.00
47670;BME280;33408;52.062;11.722;2023-04-07T05:08:20;101424.47;;;0.84;100.00
47670;BME280;33408;52.062;11.722;2023-04-07T05:10:48;101412.72;;;0.89;100.00
47670;BME280;33408;52.062;11.722;2023-04-07T05:13:15;101419.53;;;0.89;100.00
47670;BME280;33408;52.062;11.722;2023-04-07T05:15:42;101420.72;;;0.73;100.00
47670;BME280;33408;52.062;11.722;2023-04-07T05:18:08;101418.97;;;0.72;100.00
47670;BME280;33408;52.062;11.722;2023-04-07T05:20:35;101430.19;;;0.77;100.00
47670;BME280;33408;52.062;11.722;2023-04-07T05:23:02;101437.28;;;0.86;100.00
47670;BME280;33408;52.062;11.722;2023-04-07T05:25:28;101434.06;;;0.91;100.00
47670;BME280;33408;52.062;11.722;2023-04-07T05:27:57;101434.00;;;0.90;100.00
47670;BME280;33408;52.062;11.722;2023-04-07T05:30:24;101430.22;;;1.04;100.00
47670;BME280;33408;52.062;11.722;2023-04-07T05:32:51;101436.53;;;1.16;100.00
47670;BME280;33408;52.062;11.722;2023-04-07T05:35:18;101440.22;;;1.25;100.00
47670;BME280;33408;52.062;11.722;2023-04-07T05:37:44;101436.88;;;1.26;100.00
47670;BME280;33408;52.062;11.722;2023-04-07T05:40:11;101437.78;;;1.28;100.00
47670;BME280;33408;52.062;11.722;2023-04-07T05:42:38;101441.84;;;1.51;100.00
47670;BME280;33408;52.062;11.722;2023-04-07T05:45:07;101439.91;;;1.71;100.00
47670;BME280;33408;52.062;11.722;2023-04-07T05:47:34;101440.34;;;1.57;100.00
47670;BME280;33408;52.062;11.722;2023-04-07T05:50:01;101435.44;;;1.94;100.00
47670;BME280;33408;52.062;11.722;2023-04-07T05:52:27;101439.16;;;2.05;100.00
47670;BME280;33408;52.062;11.722;2023-04-07T05:54:54;101432.53;;;2.44;100.00
47670;BME280;33408;52.062;11.722;2023-04-07T05:57:21;101434.22;;;2.11;100.00
47670;BME280;33408;52.062;11.722;2023-04-07T05:59:48;101443.25;;;1.98;100.00
47670;BME280;33408;52.062;11.722;2023-04-07T06:02:16;101447.78;;;2.09;100.00
47670;BME280;33408;52.062;11.722;2023-04-07T06:04:42;101435.53;;;1.97;100.00
47670;BME280;33408;52.062;11.722;2023-04-07T06:07:09;101437.56;;;2.09;100.00
47670;BME280;33408;52.062;11.722;2023-04-07T06:09:36;101439.31;;;2.10;100.00
47670;BME280;33408;52.062;11.722;2023-04-07T06:12:03;101430.78;;;2.43;100.00
47670;BME280;33408;52.062;11.722;2023-04-07T06:14:31;101432.91;;;2.59;100.00
47670;BME280;33408;52.062;11.722;2023-04-07T06:16:57;101430.25;;;2.89;100.00
47670;BME280;33408;52.062;11.722;2023-04-07T06:19:25;101426.16;;;2.98;100.00
47670;BME280;33408;52.062;11.722;2023-04-07T06:21:52;101432.13;;;3.33;98.65
47670;BME280;33408;52.062;11.722;2023-04-07T06:24:19;101431.34;;;3.75;97.36
47670;BME280;33408;52.062;11.722;2023-04-07T06:26:47;101438.88;;;3.68;94.84
47670;BME280;33408;52.062;11.722;2023-04-07T06:29:14;101431.59;;;4.32;93.98
47670;BME280;33408;52.062;11.722;2023-04-07T06:31:40;101432.25;;;4.69;90.63
47670;BME280;33408;52.062;11.722;2023-04-07T06:34:07;101431.31;;;4.67;90.20
47670;BME280;33408;52.062;11.722;2023-04-07T06:36:35;101432.63;;;4.42;91.56
47670;BME280;33408;52.062;11.722;2023-04-07T06:39:02;101441.63;;;4.68;90.17
47670;BME280;33408;52.062;11.722;2023-04-07T06:41:29;101436.38;;;5.14;89.24
47670;BME280;33408;52.062;11.722;2023-04-07T06:43:56;101439.72;;;5.08;90.62
47670;BME280;33408;52.062;11.722;2023-04-07T06:46:22;101431.81;;;4.96;92.23
47670;BME280;33408;52.062;11.722;2023-04-07T06:48:50;101439.59;;;4.50;93.89
47670;BME280;33408;52.062;11.722;2023-04-07T06:51:17;101437.97;;;5.06;94.39
47670;BME280;33408;52.062;11.722;2023-04-07T06:53:45;101442.66;;;4.77;95.54
47670;BME280;33408;52.062;11.722;2023-04-07T06:56:13;101443.91;;;5.03;95.43
47670;BME280;33408;52.062;11.722;2023-04-07T06:58:40;101440.47;;;5.01;94.37
47670;BME280;33408;52.062;11.722;2023-04-07T07:01:07;101447.28;;;5.57;94.83
47670;BME280;33408;52.062;11.722;2023-04-07T07:03:33;101446.63;;;5.13;94.27
47670;BME280;33408;52.062;11.722;2023-04-07T07:06:00;101447.63;;;5.22;93.51
47670;BME280;33408;52.062;11.722;2023-04-07T07:08:27;101443.25;;;5.14;93.12
47670;BME280;33408;52.062;11.722;2023-04-07T07:10:56;101439.28;;;5.37;93.03
47670;BME280;33408;52.062;11.722;2023-04-07T07:13:25;101447.50;;;5.74;90.70
47670;BME280;33408;52.062;11.722;2023-04-07T07:15:52;101449.13;;;6.36;89.84
47670;BME280;33408;52.062;11.722;2023-04-07T07:18:18;101454.66;;;6.75;87.69
47670;BME280;33408;52.062;11.722;2023-04-07T07:20:45;101447.09;;;6.97;83.85
47670;BME280;33408;52.062;11.722;2023-04-07T07:23:12;101441.03;;;6.91;82.66
47670;BME280;33408;52.062;11.722;2023-04-07T07:25:38;101444.00;;;7.45;80.29
47670;BME280;33408;52.062;11.722;2023-04-07T07:28:06;101443.22;;;7.60;78.54
47670;BME280;33408;52.062;11.722;2023-04-07T07:30:33;101448.13;;;7.20;77.58
47670;BME280;33408;52.062;11.722;2023-04-07T07:33:00;101439.63;;;7.37;77.40
47670;BME280;33408;52.062;11.722;2023-04-07T07:35:27;101446.63;;;7.55;77.42
47670;BME280;33408;52.062;11.722;2023-04-07T07:37:53;101449.13;;;7.39;78.54
47670;BME280;33408;52.062;11.722;2023-04-07T07:40:20;101444.06;;;7.59;79.16
47670;BME280;33408;52.062;11.722;2023-04-07T07:42:47;101445.88;;;7.82;75.46
47670;BME280;33408;52.062;11.722;2023-04-07T07:45:15;101440.88;;;8.20;73.50
47670;BME280;33408;52.062;11.722;2023-04-07T07:47:44;101447.72;;;8.08;72.85
47670;BME280;33408;52.062;11.722;2023-04-07T07:50:10;101448.59;;;8.17;74.05
47670;BME280;33408;52.062;11.722;2023-04-07T07:52:38;101445.19;;;8.26;72.18
47670;BME280;33408;52.062;11.722;2023-04-07T07:55:05;101445.31;;;8.68;69.21
47670;BME280;33408;52.062;11.722;2023-04-07T07:57:32;101442.69;;;9.08;66.32
47670;BME280;33408;52.062;11.722;2023-04-07T07:59:58;101446.16;;;8.93;67.54
47670;BME280;33408;52.062;11.722;2023-04-07T08:02:26;101448.72;;;8.56;68.49
47670;BME280;33408;52.062;11.722;2023-04-07T08:04:55;101451.28;;;8.48;70.01
47670;BME280;33408;52.062;11.722;2023-04-07T08:07:22;101453.06;;;8.83;70.58
47670;BME280;33408;52.062;11.722;2023-04-07T08:09:49;101450.47;;;8.77;71.69
47670;BME280;33408;52.062;11.722;2023-04-07T08:12:15;101449.59;;;9.00;71.07
47670;BME280;33408;52.062;11.722;2023-04-07T08:14:42;101449.59;;;9.21;65.06
47670;BME280;33408;52.062;11.722;2023-04-07T08:17:09;101450.44;;;9.09;63.68
47670;BME280;33408;52.062;11.722;2023-04-07T08:19:38;101442.72;;;8.94;66.42
47670;BME280;33408;52.062;11.722;2023-04-07T08:22:04;101447.91;;;9.05;63.05
47670;BME280;33408;52.062;11.722;2023-04-07T08:24:31;101443.56;;;8.90;62.70
47670;BME280;33408;52.062;11.722;2023-04-07T08:26:57;101452.19;;;9.12;61.51
47670;BME280;33408;52.062;11.722;2023-04-07T08:29:25;101452.97;;;9.62;59.93
47670;BME280;33408;52.062;11.722;2023-04-07T08:31:52;101451.97;;;10.03;58.30
47670;BME280;33408;52.062;11.722;2023-04-07T08:34:18;101448.56;;;9.89;56.25
47670;BME280;33408;52.062;11.722;2023-04-07T08:36:46;101457.88;;;10.23;54.71
47670;BME280;33408;52.062;11.722;2023-04-07T08:39:13;101457.19;;;9.84;54.14
47670;BME280;33408;52.062;11.722;2023-04-07T08:41:40;101459.63;;;10.21;52.36
47670;BME280;33408;52.062;11.722;2023-04-07T08:44:09;101467.47;;;10.06;51.74
47670;BME280;33408;52.062;11.722;2023-04-07T08:46:37;101462.25;;;10.14;52.58
47670;BME280;33408;52.062;11.722;2023-04-07T08:49:07;101463.13;;;10.13;51.38
47670;BME280;33408;52.062;11.722;2023-04-07T08:51:36;101455.19;;;10.51;52.17
47670;BME280;33408;52.062;11.722;2023-04-07T08:54:09;101458.78;;;10.15;51.91
47670;BME280;33408;52.062;11.722;2023-04-07T08:56:36;101459.81;;;9.78;49.95
47670;BME280;33408;52.062;11.722;2023-04-07T08:59:05;101461.38;;;10.19;51.57
47670;BME280;33408;52.062;11.722;2023-04-07T09:01:33;101463.19;;;9.97;51.37
47670;BME280;33408;52.062;11.722;2023-04-07T09:04:01;101456.84;;;10.57;50.97
47670;BME280;33408;52.062;11.722;2023-04-07T09:06:28;101464.00;;;10.06;49.96
47670;BME280;33408;52.062;11.722;2023-04-07T09:08:56;101456.97;;;10.40;50.18
47670;BME280;33408;52.062;11.722;2023-04-07T09:11:25;101461.28;;;10.30;49.04
47670;BME280;33408;52.062;11.722;2023-04-07T09:13:52;101453.97;;;10.94;49.41
47670;BME280;33408;52.062;11.722;2023-04-07T09:16:19;101455.69;;;10.98;47.97
47670;BME280;33408;52.062;11.722;2023-04-07T09:18:45;101456.25;;;11.29;48.17
47670;BME280;33408;52.062;11.722;2023-04-07T09:21:12;101452.16;;;11.05;47.31
47670;BME280;33408;52.062;11.722;2023-04-07T09:23:40;101451.31;;;11.05;48.59
47670;BME280;33408;52.062;11.722;2023-04-07T09:26:21;101458.63;;;10.50;47.70
47670;BME280;33408;52.062;11.722;2023-04-07T09:28:53;101469.03;;;10.41;48.15
47670;BME280;33408;52.062;11.722;2023-04-07T09:31:21;101462.03;;;10.55;48.37
47670;BME280;33408;52.062;11.722;2023-04-07T09:33:50;101454.72;;;11.07;47.60
47670;BME280;33408;52.062;11.722;2023-04-07T09:36:17;101450.59;;;10.86;47.50
47670;BME280;33408;52.062;11.722;2023-04-07T09:38:44;101452.38;;;10.79;47.43
47670;BME280;33408;52.062;11.722;2023-04-07T09:41:12;101457.13;;;11.27;48.19
47670;BME280;33408;52.062;11.722;2023-04-07T09:43:41;101447.19;;;11.69;45.66
47670;BME280;33408;52.062;11.722;2023-04-07T09:46:12;101441.09;;;11.70;45.83
47670;BME280;33408;52.062;11.722;2023-04-07T09:48:40;101439.56;;;11.54;45.88
47670;BME280;33408;52.062;11.722;2023-04-07T09:51:09;101439.50;;;11.60;45.92
47670;BME280;33408;52.062;11.722;2023-04-07T09:53:41;101442.97;;;11.59;46.46
47670;BME280;33408;52.062;11.722;2023-04-07T09:56:09;101438.50;;;11.68;45.60
47670;BME280;33408;52.062;11.722;2023-04-07T09:58:37;101436.91;;;11.58;45.08
47670;BME280;33408;52.062;11.722;2023-04-07T10:01:06;101435.88;;;11.73;44.56
47670;BME280;33408;52.062;11.722;2023-04-07T10:03:35;101442.06;;;11.63;46.08
47670;BME280;33408;52.062;11.722;2023-04-07T10:06:03;101438.88;;;11.36;46.14
47670;BME280;33408;52.062;11.722;2023-04-07T10:08:31;101445.22;;;11.04;46.73
47670;BME280;33408;52.062;11.722;2023-04-07T10:11:00;101442.72;;;10.98;46.94
47670;BME280;33408;52.062;11.722;2023-04-07T10:13:27;101452.34;;;10.82;46.58
47670;BME280;33408;52.062;11.722;2023-04-07T10:15:55;101446.47;;;11.56;46.20
47670;BME280;33408;52.062;11.722;2023-04-07T10:18:28;101440.78;;;11.17;46.21
47670;BME280;33408;52.062;11.722;2023-04-07T10:20:59;101447.31;;;11.57;45.22
47670;BME280;33408;52.062;11.722;2023-04-07T10:23:33;101447.91;;;11.80;45.13
47670;BME280;33408;52.062;11.722;2023-04-07T10:26:05;101439.13;;;11.11;45.06
47670;BME280;33408;52.062;11.722;2023-04-07T10:28:37;101445.50;;;11.63;44.88
47670;BME280;33408;52.062;11.722;2023-04-07T10:31:05;101434.72;;;11.20;45.21
47670;BME280;33408;52.062;11.722;2023-04-07T10:33:46;101435.38;;;11.42;46.30
47670;BME280;33408;52.062;11.722;2023-04-07T10:36:16;101452.19;;;11.83;46.54
47670;BME280;33408;52.062;11.722;2023-04-07T10:41:42;101442.03;;;12.34;45.03
47670;BME280;33408;52.062;11.722;2023-04-07T10:44:44;101439.09;;;12.57;44.59
47670;BME280;33408;52.062;11.722;2023-04-07T10:47:12;101441.41;;;12.15;44.84
47670;BME280;33408;52.062;11.722;2023-04-07T10:53:05;101439.50;;;12.28;44.95
47670;BME280;33408;52.062;11.722;2023-04-07T10:55:35;101444.34;;;11.92;44.83
47670;BME280;33408;52.062;11.722;2023-04-07T10:58:18;101439.75;;;11.37;44.47
47670;BME280;33408;52.062;11.722;2023-04-07T11:01:16;101435.75;;;11.84;44.72
47670;BME280;33408;52.062;11.722;2023-04-07T11:03:54;101434.88;;;11.86;44.68
47670;BME280;33408;52.062;11.722;2023-04-07T11:06:22;101441.94;;;12.40;43.08
47670;BME280;33408;52.062;11.722;2023-04-07T11:08:50;101443.50;;;12.51;44.49
47670;BME280;33408;52.062;11.722;2023-04-07T11:11:34;101437.19;;;12.69;43.88
47670;BME280;33408;52.062;11.722;2023-04-07T11:14:01;101437.69;;;12.36;43.22
47670;BME280;33408;52.062;11.722;2023-04-07T11:16:34;101440.41;;;12.29;44.11
47670;BME280;33408;52.062;11.722;2023-04-07T11:19:01;101431.59;;;12.37;43.17
47670;BME280;33408;52.062;11.722;2023-04-07T11:21:28;101426.22;;;12.48;44.73
47670;BME280;33408;52.062;11.722;2023-04-07T11:23:56;101435.97;;;12.91;44.74
47670;BME280;33408;52.062;11.722;2023-04-07T11:26:23;101429.56;;;12.56;43.61
47670;BME280;33408;52.062;11.722;2023-04-07T11:28:51;101427.19;;;12.41;43.80
47670;BME280;33408;52.062;11.722;2023-04-07T11:31:20;101427.00;;;12.53;45.39
47670;BME280;33408;52.062;11.722;2023-04-07T11:33:51;101433.84;;;12.61;45.39
47670;BME280;33408;52.062;11.722;2023-04-07T11:36:25;101417.59;;;12.99;43.91
47670;BME280;33408;52.062;11.722;2023-04-07T11:38:54;101414.81;;;13.57;44.50
47670;BME280;33408;52.062;11.722;2023-04-07T11:41:24;101416.16;;;12.81;44.50
47670;BME280;33408;52.062;11.722;2023-04-07T11:44:03;101424.06;;;12.19;44.45
47670;BME280;33408;52.062;11.722;2023-04-07T11:46:30;101422.28;;;12.80;44.59
47670;BME280;33408;52.062;11.722;2023-04-07T11:49:07;101431.13;;;12.67;44.78
47670;BME280;33408;52.062;11.722;2023-04-07T11:51:34;101434.41;;;12.78;46.34
47670;BME280;33408;52.062;11.722;2023-04-07T11:54:01;101430.78;;;12.90;45.82
47670;BME280;33408;52.062;11.722;2023-04-07T11:56:29;101417.91;;;12.25;43.83
47670;BME280;33408;52.062;11.722;2023-04-07T11:59:06;101422.84;;;11.76;44.68
47670;BME280;33408;52.062;11.722;2023-04-07T12:01:39;101424.53;;;11.82;45.27
47670;BME280;33408;52.062;11.722;2023-04-07T12:04:12;101428.53;;;12.09;45.69
47670;BME280;33408;52.062;11.722;2023-04-07T12:06:40;101429.41;;;11.32;46.32
47670;BME280;33408;52.062;11.722;2023-04-07T12:09:07;101431.56;;;11.74;47.41
47670;BME280;33408;52.062;11.722;2023-04-07T12:11:36;101432.06;;;11.26;46.49
47670;BME280;33408;52.062;11.722;2023-04-07T12:14:03;101433.34;;;11.65;46.77
47670;BME280;33408;52.062;11.722;2023-04-07T12:16:31;101434.44;;;11.47;46.66
47670;BME280;33408;52.062;11.722;2023-04-07T12:18:58;101435.06;;;11.70;45.66
47670;BME280;33408;52.062;11.722;2023-04-07T12:21:24;101437.34;;;11.96;46.52
47670;BME280;33408;52.062;11.722;2023-04-07T12:23:51;101435.63;;;11.96;45.88
47670;BME280;33408;52.062;11.722;2023-04-07T12:26:18;101432.81;;;11.37;45.06
47670;BME280;33408;52.062;11.722;2023-04-07T12:28:47;101434.25;;;12.33;45.59
47670;BME280;33408;52.062;11.722;2023-04-07T12:31:14;101430.75;;;12.37;45.03
47670;BME280;33408;52.062;11.722;2023-04-07T12:33:41;101429.59;;;11.91;43.69
47670;BME280;33408;52.062;11.722;2023-04-07T12:36:07;101425.97;;;12.64;44.83
47670;BME280;33408;52.062;11.722;2023-04-07T12:38:34;101438.22;;;11.96;44.31
47670;BME280;33408;52.062;11.722;2023-04-07T12:41:01;101434.63;;;13.19;44.48
47670;BME280;33408;52.062;11.722;2023-04-07T12:43:28;101431.44;;;13.01;43.82
47670;BME280;33408;52.062;11.722;2023-04-07T12:45:56;101429.69;;;12.49;43.44
47670;BME280;33408;52.062;11.722;2023-04-07T12:48:24;101438.81;;;13.26;44.51
47670;BME280;33408;52.062;11.722;2023-04-07T12:50:52;101436.19;;;12.17;45.62
47670;BME280;33408;52.062;11.722;2023-04-07T12:53:18;101440.03;;;12.52;45.26